Архив погоды в Каневке

Метеограмма Каневка
Понедельник, 25 Июня
Время местн. Темп Ветер Видим Явления Облачность нижн/средн/верх Атм. давл. Влжн Точка росы ВНГО R Сост. почвы Tg s
Напр Скр Прв ур.ст ур.м изм
03:00 +8.6° штиль 0 - более 50 км - облачно с прояснениями 749 762 +0.6 87% +6.5° более 2.5 км - - - -
00:00 +12.5° З 1 1 более 50 км - преимущественно облачно 748 761 +0.8 69% +6.9° 1 км - - - -
Воскресенье, 24 Июня
Время местн. Темп Ветер Видим Явления Облачность нижн/средн/верх Атм. давл. Влжн Точка росы ВНГО R Сост. почвы Tg s
Напр Скр Прв ур.ст ур.м изм
21:00 +15.7° З 2 3 более 50 км - преимущественно облачно 747 760 +0.5 56% +6.9° 1 км 0 - - -
18:00 +18.6° З 3 11 более 50 км - облачно с прояснениями 747 760 +0.6 45% +6.4° 1 км - - - -
15:00 +18.9° Ю-З 5 14 более 50 км - облачно с прояснениями 746 759 +0.6 41% +5.5° 1 км - - - -
12:00 +17.1° Ю-З 6 13 более 50 км - облачно с прояснениями 745 759 +0.2 49% +6.2° 1 км - - - -
09:00 +16.6° Ю,Ю-З 5 10 более 50 км - переменная облачность 745 759 +0.1 52% +6.8° 1 км 0 Сухая (без трещин) +6° -
06:00 +13.1° Ю-З 4 7 50 км - ясно 745 759 +1 68% +7.4° более 2.5 км - - - -
03:00 +10.5° Ю,Ю-З 3 6 50 км - переменная облачность 744 758 +1 77% +6.6° более 2.5 км - - - -
00:00 +11.6° Ю 3 6 50 км - незначительная облачность 743 757 +0.8 71% +6.6° - - - - -
Суббота, 23 Июня
Время местн. Темп Ветер Видим Явления Облачность нижн/средн/верх Атм. давл. Влжн Точка росы ВНГО R Сост. почвы Tg s
Напр Скр Прв ур.ст ур.м изм
21:00 +15.4° Ю,Ю-З 4 9 50 км - незначительная облачность 742 756 +0.7 54% +6.2° 1 км 0 - - -
18:00 +15.8° Ю-З 5 13 50 км - преимущественно облачно 742 755 +0.7 54% +6.5° 1 км - - - -
15:00 +14.8° Ю,Ю-З 7 15 50 км - облачно 741 754 +1.5 58% +6.6° 1 км - - - -
12:00 +15.5° Ю,Ю-З 6 11 50 км - облачно с прояснениями 740 753 +1.4 60% +7.7° 1 км - - - -
09:00 +15.3° Ю,Ю-З 4 9 более 50 км небо без изменений {ливневые осадки} облачно с прояснениями 738 751 +0.4 74% +10.7° 600 м 16 Влажная (без луж) +10° -
06:00 +10.7° Ю,Ю-В 3 10 10 км слабый ливневый дождь облачно 738 751 -0.5 95% +9.9° 600 м - - - -
03:00 +10.9° Ю,Ю-В 4 8 10 км слабый ливневый дождь облачно 738 752 -1.7 93% +9.8° 600 м - - - -
00:00 +9.6° Ю-В 4 7 20 км слабый ливневый дождь облачно 740 754 -1.1 88% +7.7° 600 м - - - -
Пятница, 22 Июня
Время местн. Темп Ветер Видим Явления Облачность нижн/средн/верх Атм. давл. Влжн Точка росы ВНГО R Сост. почвы Tg s
Напр Скр Прв ур.ст ур.м изм
21:00 +10.5° Ю-В 2 5 более 50 км ливневый дождь облачно 741 755 -0.5 87% +8.4° 600 м 1 - - -
18:00 +14.3° Ю,Ю-В 3 5 20 км слабый ливневый дождь облачно 742 755 +0.2 71% +9.1° 600 м - - - -
15:00 +18.3° Ю 3 7 более 50 км - преимущественно облачно 741 755 0 57% +9.6° 600 м - - - -
12:00 +18.6° З 1 2 более 50 км - преимущественно облачно 741 755 +0.2 49% +7.6° 1 км - - - -
09:00 +15.4° С,С-З 1 3 более 50 км - переменная облачность 741 755 +0.3 67% +9.2° 1 км 0 Влажная (без луж) +7° -
06:00 +9.6° З,С-З 1 3 50 км - облачно с прояснениями 741 754 +1.1 90% +8.1° 600 м - - - -
03:00 +8.6° З 1 2 50 км - преимущественно облачно 740 753 +1.1 95% +7.9° 1 км - - - -
00:00 +10.8° З 1 2 10 км дымка облачно 739 752 +1.1 95% +10° 600 м - - - -